Clearing, Illinois
Current Conditions -  °F | °C
As of 1:53 AM on Friday 19 Dec 2014 (Local Time) from KMDW Reporting Station
Light Snow Light Snow  
Wind Chill: 22°   Ceiling: 2200
Heat Index: 29°   Visibility: 8mi
Dew Point: 22°   Wind: 7mph
Humidity: 75%   Direction: 300°WNW
Pressure: 30.27"   Gusts: NA
Location:  41.789°N, 87.7699°W
Report Text: KMDW 190753Z 30006KT 8SM -SN OVC022 M02/M06 A3027 RMK AO2 SLP265 P0000 T10171056
Loading
Personal Weather Stations






























Interactive Weather Map New forecast layout! Learn more

10-Day Weather Forecast

Advertisements
Track Severe Weather on mobile